Time;durP1;ratioP1;P1;durP2;ratioP2;P2;SDS_P1;SDS_P2;PMS_P1;PMS_P2;Temp;Humidity;BMP_temperature;BMP_pressure;BME280_temperature;BME280_humidity;BME280_pressure;Samples;Min_cycle;Max_cycle;Signal;HPM_P1;HPM_P2
2024/02/29 00:00:30;;;;;;;2.33;2.13;;;;;;;;;;1264218;23;20006;-74
2024/02/29 00:01:01;;;;;;;14.45;9.23;;;;;;;;;;1264686;23;20010;-74
2024/02/29 00:01:31;;;;;;;12.85;8.07;;;;;;;;;;1264748;23;20052;-74
2024/02/29 00:02:02;;;;;;;11.88;10.35;;;;;;;;;;1264787;23;20010;-73
2024/02/29 00:02:32;;;;;;;16.90;6.57;;;;;;;;;;1264328;23;20010;-74
2024/02/29 00:03:03;;;;;;;12.68;8.48;;;;;;;;;;1259294;23;20015;-74
2024/02/29 00:03:33;;;;;;;10.02;8.20;;;;;;;;;;1259047;23;20006;-74
2024/02/29 00:04:04;;;;;;;16.38;4.63;;;;;;;;;;1259302;23;20380;-74
2024/02/29 00:04:34;;;;;;;9.02;4.80;;;;;;;;;;1258907;23;20013;-74
2024/02/29 00:05:06;;;;;;;35.80;10.70;;;;;;;;;;1258887;23;20003;-74
2024/02/29 00:05:36;;;;;;;31.70;7.47;;;;;;;;;;1258654;23;20014;-73
2024/02/29 00:06:07;;;;;;;19.08;4.35;;;;;;;;;;1258919;23;20034;-74
2024/02/29 00:06:37;;;;;;;12.60;9.40;;;;;;;;;;1258614;23;20013;-74
2024/02/29 00:07:08;;;;;;;10.77;9.48;;;;;;;;;;1259093;23;20006;-74
2024/02/29 00:07:39;;;;;;;5.05;3.03;;;;;;;;;;1258904;23;20042;-74
2024/02/29 00:08:10;;;;;;;4.18;3.85;;;;;;;;;;1259294;23;19998;-73
2024/02/29 00:08:41;;;;;;;4.97;4.60;;;;;;;;;;1259033;23;20422;-73
2024/02/29 00:09:11;;;;;;;6.22;4.28;;;;;;;;;;1259255;23;20059;-74
2024/02/29 00:09:42;;;;;;;26.65;8.57;;;;;;;;;;1259081;23;20405;-73
2024/02/29 00:10:14;;;;;;;5.38;4.97;;;;;;;;;;1259244;23;20105;-74
2024/02/29 00:10:44;;;;;;;6.07;5.68;;;;;;;;;;1259045;23;20452;-74
2024/02/29 00:11:15;;;;;;;8.93;4.45;;;;;;;;;;1259196;23;20010;-73
2024/02/29 00:11:46;;;;;;;8.35;5.97;;;;;;;;;;1259000;23;20006;-74
2024/02/29 00:12:16;;;;;;;4.75;4.22;;;;;;;;;;1258709;23;20014;-74
2024/02/29 00:12:47;;;;;;;18.85;8.05;;;;;;;;;;1252460;23;20006;-74
2024/02/29 00:13:17;;;;;;;5.15;4.80;;;;;;;;;;1252910;23;20003;-73
2024/02/29 00:13:48;;;;;;;5.97;5.25;;;;;;;;;;1246785;23;20003;-73
2024/02/29 00:14:18;;;;;;;12.18;9.35;;;;;;;;;;1247018;23;20396;-74
2024/02/29 00:14:49;;;;;;;19.92;5.57;;;;;;;;;;1253017;23;20423;-74
2024/02/29 00:15:19;;;;;;;19.38;5.05;;;;;;;;;;1258762;23;20006;-74
2024/02/29 00:15:50;;;;;;;14.80;7.53;;;;;;;;;;1264659;23;20013;-74
2024/02/29 00:16:21;;;;;;;7.30;6.32;;;;;;;;;;1258497;23;20498;-74
2024/02/29 00:16:51;;;;;;;4.72;3.83;;;;;;;;;;1258730;23;20473;-73
2024/02/29 00:17:22;;;;;;;9.13;5.90;;;;;;;;;;1258456;23;20014;-73
2024/02/29 00:17:52;;;;;;;24.95;8.18;;;;;;;;;;1252880;23;20007;-74
2024/02/29 00:18:23;;;;;;;10.27;7.47;;;;;;;;;;1252457;23;20007;-74
2024/02/29 00:18:53;;;;;;;8.35;6.28;;;;;;;;;;1252649;23;20104;-74
2024/02/29 00:19:24;;;;;;;21.55;8.13;;;;;;;;;;1253080;23;20007;-74
2024/02/29 00:19:54;;;;;;;8.65;7.45;;;;;;;;;;1258794;23;20003;-73
2024/02/29 00:20:25;;;;;;;20.17;6.28;;;;;;;;;;1258818;23;20085;-74
2024/02/29 00:20:55;;;;;;;9.02;5.53;;;;;;;;;;1259051;23;20308;-73
2024/02/29 00:21:26;;;;;;;2.85;2.63;;;;;;;;;;1259038;23;20006;-73
2024/02/29 00:21:56;;;;;;;6.93;3.58;;;;;;;;;;1258000;23;20051;-74
2024/02/29 00:22:27;;;;;;;16.45;9.68;;;;;;;;;;1258598;23;20002;-73
2024/02/29 00:22:57;;;;;;;6.88;5.85;;;;;;;;;;1258841;23;20012;-74
2024/02/29 00:23:28;;;;;;;6.40;3.03;;;;;;;;;;1258845;23;20002;-74
2024/02/29 00:23:58;;;;;;;11.77;5.43;;;;;;;;;;1259072;23;20010;-74
2024/02/29 00:24:29;;;;;;;8.30;6.95;;;;;;;;;;1264599;23;20433;-74
2024/02/29 00:24:59;;;;;;;10.52;6.03;;;;;;;;;;1264841;23;20014;-74
2024/02/29 00:25:30;;;;;;;11.02;7.18;;;;;;;;;;1264750;23;20042;-74
2024/02/29 00:26:00;;;;;;;14.20;7.03;;;;;;;;;;1264540;23;20010;-74
2024/02/29 00:26:31;;;;;;;8.32;7.07;;;;;;;;;;1258945;23;20014;-74
2024/02/29 00:27:02;;;;;;;20.42;5.38;;;;;;;;;;1264729;23;20040;-74
2024/02/29 00:27:32;;;;;;;7.35;4.15;;;;;;;;;;1264802;23;20006;-74
2024/02/29 00:28:03;;;;;;;5.40;4.97;;;;;;;;;;1264831;23;20006;-74
2024/02/29 00:28:33;;;;;;;6.43;5.72;;;;;;;;;;1264547;23;20486;-74
2024/02/29 00:29:04;;;;;;;9.35;3.20;;;;;;;;;;1259208;23;20449;-74
2024/02/29 00:29:35;;;;;;;10.43;5.45;;;;;;;;;;1259131;23;20013;-73
2024/02/29 00:30:06;;;;;;;5.43;3.53;;;;;;;;;;1259139;23;20006;-74
2024/02/29 00:30:36;;;;;;;8.90;3.47;;;;;;;;;;1258823;23;20014;-76
2024/02/29 00:31:07;;;;;;;6.75;5.00;;;;;;;;;;1259039;23;20010;-74
2024/02/29 00:31:41;;;;;;;9.25;4.57;;;;;;;;;;1258603;23;20010;-74
2024/02/29 00:32:12;;;;;;;12.00;7.90;;;;;;;;;;1258789;23;20149;-74
2024/02/29 00:32:43;;;;;;;9.27;8.13;;;;;;;;;;1258582;23;20028;-74
2024/02/29 00:33:14;;;;;;;7.03;6.30;;;;;;;;;;1259238;23;20010;-73
2024/02/29 00:33:45;;;;;;;8.10;4.75;;;;;;;;;;1258948;23;20085;-74
2024/02/29 00:34:15;;;;;;;7.90;7.15;;;;;;;;;;1264769;23;20010;-73
2024/02/29 00:34:46;;;;;;;3.88;3.20;;;;;;;;;;1264568;23;20088;-73
2024/02/29 00:35:16;;;;;;;18.50;6.90;;;;;;;;;;1258642;23;20015;-74
2024/02/29 00:35:47;;;;;;;29.08;10.65;;;;;;;;;;1252449;23;20007;-74
2024/02/29 00:36:17;;;;;;;36.00;11.23;;;;;;;;;;1246619;23;20034;-74
2024/02/29 00:36:48;;;;;;;9.68;5.65;;;;;;;;;;1247060;23;20085;-74
2024/02/29 00:37:19;;;;;;;6.07;5.57;;;;;;;;;;1258739;23;20011;-74
2024/02/29 00:37:49;;;;;;;10.77;5.20;;;;;;;;;;1259046;23;20089;-74
2024/02/29 00:38:20;;;;;;;4.38;3.65;;;;;;;;;;1259052;23;20446;-74
2024/02/29 00:38:50;;;;;;;9.32;7.45;;;;;;;;;;1259273;23;20006;-74
2024/02/29 00:39:21;;;;;;;15.70;6.47;;;;;;;;;;1264590;23;20029;-74
2024/02/29 00:39:51;;;;;;;9.45;6.13;;;;;;;;;;1264713;23;20014;-74
2024/02/29 00:40:22;;;;;;;8.80;4.68;;;;;;;;;;1264639;23;20380;-74
2024/02/29 00:40:53;;;;;;;9.48;7.65;;;;;;;;;;1263348;23;20006;-74
2024/02/29 00:41:23;;;;;;;26.08;11.15;;;;;;;;;;1259035;23;20037;-74
2024/02/29 00:41:54;;;;;;;20.85;8.18;;;;;;;;;;1258950;23;20089;-74
2024/02/29 00:42:24;;;;;;;10.68;8.00;;;;;;;;;;1258943;23;20409;-74
2024/02/29 00:42:55;;;;;;;8.90;6.55;;;;;;;;;;1259230;23;20037;-74
2024/02/29 00:43:26;;;;;;;7.95;5.43;;;;;;;;;;1258847;23;20371;-74
2024/02/29 00:43:56;;;;;;;10.68;7.88;;;;;;;;;;1258914;23;20381;-74
2024/02/29 00:44:27;;;;;;;9.43;4.85;;;;;;;;;;1259017;23;20456;-74
2024/02/29 00:44:57;;;;;;;7.72;6.75;;;;;;;;;;1258622;23;20454;-73
2024/02/29 00:45:28;;;;;;;10.30;7.32;;;;;;;;;;1258392;23;20017;-74
2024/02/29 00:45:58;;;;;;;9.73;8.77;;;;;;;;;;1258589;23;20006;-74
2024/02/29 00:46:29;;;;;;;39.05;11.93;;;;;;;;;;1258571;23;20109;-74
2024/02/29 00:46:59;;;;;;;8.70;6.22;;;;;;;;;;1264794;23;20096;-74
2024/02/29 00:47:30;;;;;;;16.67;3.85;;;;;;;;;;1264535;23;20032;-74
2024/02/29 00:48:00;;;;;;;4.60;4.03;;;;;;;;;;1264446;23;20044;-74
2024/02/29 00:48:31;;;;;;;7.55;5.28;;;;;;;;;;1264519;23;20002;-74
2024/02/29 00:49:01;;;;;;;5.85;5.43;;;;;;;;;;1264742;23;20097;-74
2024/02/29 00:49:34;;;;;;;7.32;5.13;;;;;;;;;;1264134;23;20016;-74
2024/02/29 00:50:07;;;;;;;10.57;7.47;;;;;;;;;;1258731;23;20010;-73
2024/02/29 00:50:37;;;;;;;12.80;4.03;;;;;;;;;;1258463;23;20046;-74
2024/02/29 00:51:08;;;;;;;16.25;6.82;;;;;;;;;;1258881;23;20081;-74
2024/02/29 00:51:38;;;;;;;10.43;5.05;;;;;;;;;;1258482;23;20420;-74
2024/02/29 00:52:09;;;;;;;13.20;5.60;;;;;;;;;;1258674;23;20096;-74
2024/02/29 00:52:39;;;;;;;12.05;8.25;;;;;;;;;;1258402;23;20006;-74
2024/02/29 00:53:10;;;;;;;15.68;8.00;;;;;;;;;;1259307;23;20476;-74
2024/02/29 00:53:40;;;;;;;9.05;7.57;;;;;;;;;;1258651;23;20056;-73
2024/02/29 00:54:11;;;;;;;4.75;4.45;;;;;;;;;;1259069;23;20060;-74
2024/02/29 00:54:41;;;;;;;26.20;6.68;;;;;;;;;;1258899;23;20034;-74
2024/02/29 00:55:12;;;;;;;11.18;5.88;;;;;;;;;;1264808;23;20006;-74
2024/02/29 00:55:43;;;;;;;3.42;3.13;;;;;;;;;;1264405;23;20331;-74
2024/02/29 00:56:14;;;;;;;4.10;3.70;;;;;;;;;;1264881;23;20012;-74
2024/02/29 00:56:44;;;;;;;5.72;4.97;;;;;;;;;;1264264;23;20033;-73
2024/02/29 00:57:15;;;;;;;3.72;3.45;;;;;;;;;;1259240;23;20427;-73
2024/02/29 00:57:49;;;;;;;8.20;7.32;;;;;;;;;;1258641;23;20081;-74
2024/02/29 00:58:20;;;;;;;5.55;5.03;;;;;;;;;;1258739;23;20089;-74
2024/02/29 00:58:51;;;;;;;2.22;1.52;;;;;;;;;;1259025;23;20013;-74
2024/02/29 00:59:21;;;;;;;3.58;3.35;;;;;;;;;;1259122;23;20017;-74
2024/02/29 00:59:52;;;;;;;7.65;4.88;;;;;;;;;;1258845;23;20006;-73
2024/02/29 01:00:22;;;;;;;5.53;5.05;;;;;;;;;;1258638;23;20350;-74
2024/02/29 01:00:54;;;;;;;6.90;6.30;;;;;;;;;;1258698;23;20010;-74
2024/02/29 01:01:24;;;;;;;9.50;6.07;;;;;;;;;;1258638;23;20013;-74
2024/02/29 01:01:55;;;;;;;7.03;3.90;;;;;;;;;;1252383;23;20094;-74
2024/02/29 01:02:26;;;;;;;11.13;7.95;;;;;;;;;;1247022;23;20011;-74
2024/02/29 01:02:56;;;;;;;11.57;9.57;;;;;;;;;;1252740;23;20506;-74
2024/02/29 01:03:27;;;;;;;5.22;4.43;;;;;;;;;;1252884;23;20335;-74
2024/02/29 01:03:58;;;;;;;5.57;5.13;;;;;;;;;;1258317;23;20021;-74
2024/02/29 01:04:28;;;;;;;9.52;5.32;;;;;;;;;;1258949;23;20013;-74
2024/02/29 01:04:59;;;;;;;3.50;3.15;;;;;;;;;;1259120;23;20053;-74
2024/02/29 01:05:30;;;;;;;10.15;5.80;;;;;;;;;;1258872;23;20148;-74
2024/02/29 01:06:01;;;;;;;8.48;4.97;;;;;;;;;;1258429;23;20093;-74
2024/02/29 01:06:31;;;;;;;7.20;5.95;;;;;;;;;;1258641;23;20014;-73
2024/02/29 01:07:03;;;;;;;5.28;4.85;;;;;;;;;;1258670;23;20036;-73
2024/02/29 01:07:33;;;;;;;11.52;8.07;;;;;;;;;;1258241;23;20510;-73
2024/02/29 01:08:04;;;;;;;5.70;5.18;;;;;;;;;;1258981;23;20014;-74
2024/02/29 01:08:35;;;;;;;17.48;7.90;;;;;;;;;;1258909;23;20419;-74
2024/02/29 01:09:06;;;;;;;14.90;6.07;;;;;;;;;;1264875;23;20014;-74
2024/02/29 01:09:36;;;;;;;5.95;3.95;;;;;;;;;;1258240;23;20113;-74
2024/02/29 01:10:07;;;;;;;4.60;4.18;;;;;;;;;;1258790;23;20010;-74
2024/02/29 01:10:39;;;;;;;14.25;7.40;;;;;;;;;;1258555;23;20006;-74
2024/02/29 01:11:09;;;;;;;10.80;5.13;;;;;;;;;;1259050;23;20006;-74
2024/02/29 01:11:40;;;;;;;5.95;4.43;;;;;;;;;;1264411;23;20033;-74
2024/02/29 01:12:10;;;;;;;3.75;3.45;;;;;;;;;;1264642;23;20006;-73
2024/02/29 01:12:43;;;;;;;15.20;10.60;;;;;;;;;;1258073;23;20013;-73
2024/02/29 01:13:14;;;;;;;12.35;6.10;;;;;;;;;;1252772;23;20007;-74
2024/02/29 01:13:44;;;;;;;10.57;9.57;;;;;;;;;;1252301;23;20358;-74
2024/02/29 01:14:15;;;;;;;7.28;6.30;;;;;;;;;;1247499;23;20051;-73
2024/02/29 01:14:45;;;;;;;11.55;6.03;;;;;;;;;;1252694;23;20378;-73
2024/02/29 01:15:16;;;;;;;9.55;8.63;;;;;;;;;;1258867;23;20002;-74
2024/02/29 01:15:48;;;;;;;2.17;2.08;;;;;;;;;;1258007;23;20377;-74
2024/02/29 01:16:19;;;;;;;6.50;5.90;;;;;;;;;;1258966;23;20064;-74
2024/02/29 01:16:51;;;;;;;8.98;3.90;;;;;;;;;;1258922;23;20374;-74
2024/02/29 01:17:22;;;;;;;6.70;5.30;;;;;;;;;;1258713;23;20033;-74
2024/02/29 01:17:53;;;;;;;5.97;3.95;;;;;;;;;;1258936;23;20013;-74
2024/02/29 01:18:23;;;;;;;3.63;2.25;;;;;;;;;;1257885;23;20017;-74
2024/02/29 01:18:54;;;;;;;5.88;5.47;;;;;;;;;;1258075;23;20333;-74
2024/02/29 01:19:24;;;;;;;2.90;2.70;;;;;;;;;;1258269;23;20002;-74
2024/02/29 01:19:55;;;;;;;5.10;4.75;;;;;;;;;;1257919;23;20003;-74
2024/02/29 01:20:25;;;;;;;12.43;8.50;;;;;;;;;;1258372;23;20006;-74
2024/02/29 01:20:56;;;;;;;9.63;7.55;;;;;;;;;;1258521;23;19998;-74
2024/02/29 01:21:26;;;;;;;5.35;4.93;;;;;;;;;;1258611;23;20006;-73
2024/02/29 01:21:57;;;;;;;18.52;6.20;;;;;;;;;;1258068;23;20387;-74
2024/02/29 01:22:28;;;;;;;3.55;3.22;;;;;;;;;;1258399;23;20006;-74
2024/02/29 01:22:58;;;;;;;7.55;3.95;;;;;;;;;;1258817;23;20003;-74
2024/02/29 01:23:29;;;;;;;4.57;3.53;;;;;;;;;;1264093;23;20002;-74
2024/02/29 01:23:59;;;;;;;2.90;2.70;;;;;;;;;;1264334;23;20017;-74
2024/02/29 01:24:30;;;;;;;3.92;3.53;;;;;;;;;;1264304;23;20401;-74
2024/02/29 01:25:01;;;;;;;8.02;3.45;;;;;;;;;;1263692;23;20486;-74
2024/02/29 01:25:32;;;;;;;4.45;4.22;;;;;;;;;;1263945;23;20014;-74
2024/02/29 01:26:04;;;;;;;8.82;4.28;;;;;;;;;;1258075;23;20007;-74
2024/02/29 01:26:34;;;;;;;4.78;3.90;;;;;;;;;;1252339;23;20041;-74
2024/02/29 01:27:05;;;;;;;5.30;4.85;;;;;;;;;;1252267;23;20011;-74
2024/02/29 01:27:35;;;;;;;2.53;1.75;;;;;;;;;;1246625;23;20448;-74
2024/02/29 01:28:06;;;;;;;18.70;8.32;;;;;;;;;;1246736;23;20372;-73
2024/02/29 01:28:37;;;;;;;3.03;2.83;;;;;;;;;;1258219;23;20010;-73
2024/02/29 01:29:07;;;;;;;5.57;5.18;;;;;;;;;;1290031;23;20047;-74
2024/02/29 01:29:39;;;;;;;7.85;3.78;;;;;;;;;;1283276;23;20054;-74
2024/02/29 01:30:10;;;;;;;6.22;5.70;;;;;;;;;;1284160;23;20009;-74
2024/02/29 01:30:40;;;;;;;9.68;7.45;;;;;;;;;;1282306;23;20004;-74
2024/02/29 01:31:11;;;;;;;5.55;5.07;;;;;;;;;;1259195;23;20016;-74
2024/02/29 01:31:41;;;;;;;4.05;3.75;;;;;;;;;;1264241;23;20117;-74
2024/02/29 01:32:12;;;;;;;4.82;4.40;;;;;;;;;;1264047;23;20006;-74
2024/02/29 01:32:42;;;;;;;10.95;7.03;;;;;;;;;;1258380;23;20003;-74
2024/02/29 01:33:13;;;;;;;3.45;3.15;;;;;;;;;;1246992;23;20003;-74
2024/02/29 01:33:43;;;;;;;18.83;4.88;;;;;;;;;;1252188;23;20007;-74
2024/02/29 01:34:14;;;;;;;2.40;2.30;;;;;;;;;;1252597;23;20376;-74
2024/02/29 01:34:44;;;;;;;15.30;4.70;;;;;;;;;;1257884;23;20003;-74
2024/02/29 01:35:15;;;;;;;9.85;5.22;;;;;;;;;;1258950;23;20002;-74
2024/02/29 01:35:46;;;;;;;10.48;6.68;;;;;;;;;;1258683;23;20056;-74
2024/02/29 01:36:16;;;;;;;13.70;9.82;;;;;;;;;;1258949;23;20439;-74
2024/02/29 01:36:47;;;;;;;5.57;4.32;;;;;;;;;;1258745;23;20323;-74
2024/02/29 01:37:20;;;;;;;6.47;5.85;;;;;;;;;;1258722;23;20029;-74
2024/02/29 01:37:51;;;;;;;3.03;2.78;;;;;;;;;;1258542;23;20046;-74
2024/02/29 01:38:21;;;;;;;18.10;6.07;;;;;;;;;;1258264;23;20006;-74
2024/02/29 01:38:52;;;;;;;5.95;4.72;;;;;;;;;;1253720;23;20006;-74
2024/02/29 01:39:23;;;;;;;10.15;5.10;;;;;;;;;;1258827;23;20010;-73
2024/02/29 01:39:53;;;;;;;4.10;3.80;;;;;;;;;;1252338;23;20006;-74
2024/02/29 01:40:24;;;;;;;28.83;6.70;;;;;;;;;;1252896;23;20039;-74
2024/02/29 01:40:54;;;;;;;24.50;6.50;;;;;;;;;;1252897;23;20007;-74
2024/02/29 01:41:25;;;;;;;10.57;6.03;;;;;;;;;;1252212;23;20034;-74
2024/02/29 01:41:56;;;;;;;9.05;7.80;;;;;;;;;;1252545;23;20011;-74
2024/02/29 01:42:26;;;;;;;4.82;4.07;;;;;;;;;;1246960;23;20396;-74
2024/02/29 01:42:57;;;;;;;3.03;2.80;;;;;;;;;;1246828;23;20463;-74
2024/02/29 01:43:29;;;;;;;12.52;7.05;;;;;;;;;;1246876;23;20050;-75
2024/02/29 01:43:59;;;;;;;5.32;4.80;;;;;;;;;;1253032;23;20009;-74
2024/02/29 01:44:30;;;;;;;3.13;2.80;;;;;;;;;;1258780;23;20029;-74
2024/02/29 01:45:01;;;;;;;8.95;5.70;;;;;;;;;;1264557;23;20501;-74
2024/02/29 01:45:32;;;;;;;7.53;6.40;;;;;;;;;;1264644;23;20013;-74
2024/02/29 01:46:10;;;;;;;5.80;4.53;;;;;;;;;;1264661;23;20304;-74
2024/02/29 01:46:41;;;;;;;8.32;7.20;;;;;;;;;;1261915;23;20096;-74
2024/02/29 01:47:12;;;;;;;6.97;5.25;;;;;;;;;;1258713;23;20016;-75
2024/02/29 01:47:43;;;;;;;14.52;7.95;;;;;;;;;;1256803;23;20394;-74
2024/02/29 01:48:15;;;;;;;6.40;5.90;;;;;;;;;;1258345;23;20003;-74
2024/02/29 01:48:48;;;;;;;4.05;3.78;;;;;;;;;;1256859;23;20006;-75
2024/02/29 01:49:18;;;;;;;10.10;7.30;;;;;;;;;;1258096;23;20002;-74
2024/02/29 01:49:49;;;;;;;2.13;2.00;;;;;;;;;;1261566;23;20037;-74
2024/02/29 01:50:20;;;;;;;5.53;4.72;;;;;;;;;;1262984;23;20347;-74
2024/02/29 01:50:51;;;;;;;13.00;8.80;;;;;;;;;;1264555;23;20002;-74
2024/02/29 01:51:23;;;;;;;8.43;7.72;;;;;;;;;;1258347;23;20480;-75
2024/02/29 01:51:54;;;;;;;4.88;4.57;;;;;;;;;;1252218;23;20010;-74
2024/02/29 01:52:26;;;;;;;10.65;5.00;;;;;;;;;;1246312;23;20007;-75
2024/02/29 01:52:57;;;;;;;5.47;4.85;;;;;;;;;;1241720;23;20436;-74
2024/02/29 01:53:27;;;;;;;4.43;4.03;;;;;;;;;;1246898;23;20007;-74
2024/02/29 01:53:58;;;;;;;8.23;5.60;;;;;;;;;;1246684;23;20063;-74
2024/02/29 01:54:33;;;;;;;10.38;4.80;;;;;;;;;;1246788;23;20007;-75
2024/02/29 01:55:05;;;;;;;2.67;2.58;;;;;;;;;;1252119;23;20010;-74
2024/02/29 01:55:36;;;;;;;5.03;4.53;;;;;;;;;;1247496;23;20086;-74
2024/02/29 01:56:07;;;;;;;3.28;3.08;;;;;;;;;;1247747;23;20455;-74
2024/02/29 01:56:38;;;;;;;3.42;3.13;;;;;;;;;;1251648;23;20446;-74
2024/02/29 01:57:09;;;;;;;12.13;6.75;;;;;;;;;;1252577;23;20011;-74
2024/02/29 01:57:41;;;;;;;2.75;2.63;;;;;;;;;;1257755;23;20462;-74
2024/02/29 01:58:12;;;;;;;3.53;2.67;;;;;;;;;;1264417;23;20438;-74
2024/02/29 01:58:43;;;;;;;2.03;1.92;;;;;;;;;;1264300;23;20492;-74
2024/02/29 01:59:14;;;;;;;2.40;2.20;;;;;;;;;;1258059;23;20056;-74
2024/02/29 01:59:45;;;;;;;6.05;4.68;;;;;;;;;;1246080;23;20403;-74
2024/02/29 02:00:16;;;;;;;12.95;10.02;;;;;;;;;;1241177;23;20090;-74
2024/02/29 02:00:46;;;;;;;5.63;4.15;;;;;;;;;;1246881;23;20435;-73
2024/02/29 02:01:17;;;;;;;1.15;1.13;;;;;;;;;;1250895;23;20419;-76
2024/02/29 02:01:48;;;;;;;6.93;6.07;;;;;;;;;;1251578;23;20011;-74
2024/02/29 02:02:18;;;;;;;18.60;4.97;;;;;;;;;;1258519;23;20006;-74
2024/02/29 02:02:49;;;;;;;6.40;4.00;;;;;;;;;;1252083;23;20014;-74
2024/02/29 02:03:20;;;;;;;1.92;1.83;;;;;;;;;;1252763;23;20086;-74
2024/02/29 02:03:50;;;;;;;6.65;5.72;;;;;;;;;;1251848;23;20106;-74
2024/02/29 02:04:21;;;;;;;10.00;6.70;;;;;;;;;;1252654;23;20011;-74
2024/02/29 02:04:52;;;;;;;3.78;3.47;;;;;;;;;;1258345;23;20048;-74
2024/02/29 02:05:23;;;;;;;11.18;5.90;;;;;;;;;;1257344;23;20006;-74
2024/02/29 02:05:54;;;;;;;2.55;2.35;;;;;;;;;;1257712;23;19994;-74
2024/02/29 02:06:24;;;;;;;7.15;4.95;;;;;;;;;;1258416;23;20026;-74
2024/02/29 02:06:56;;;;;;;4.13;2.78;;;;;;;;;;1258332;23;20006;-74
2024/02/29 02:07:29;;;;;;;9.60;5.75;;;;;;;;;;1258611;23;20014;-74
2024/02/29 02:08:02;;;;;;;7.88;7.15;;;;;;;;;;1257990;23;20103;-74
2024/02/29 02:08:33;;;;;;;6.50;5.38;;;;;;;;;;1263361;23;20046;-75
2024/02/29 02:09:04;;;;;;;4.93;4.47;;;;;;;;;;1263978;23;20006;-75
2024/02/29 02:09:35;;;;;;;9.90;7.93;;;;;;;;;;1264384;23;20010;-75
2024/02/29 02:10:07;;;;;;;5.85;3.85;;;;;;;;;;1257629;23;20014;-74
2024/02/29 02:10:37;;;;;;;4.55;4.25;;;;;;;;;;1252786;23;20062;-75
2024/02/29 02:11:08;;;;;;;5.35;3.50;;;;;;;;;;1257952;23;20135;-74
2024/02/29 02:11:38;;;;;;;5.57;5.28;;;;;;;;;;1258059;23;20010;-74
2024/02/29 02:12:10;;;;;;;8.60;7.28;;;;;;;;;;1252590;23;20038;-74
2024/02/29 02:12:41;;;;;;;6.43;5.53;;;;;;;;;;1257885;23;20049;-74
2024/02/29 02:13:11;;;;;;;14.38;7.03;;;;;;;;;;1252422;23;20033;-74
2024/02/29 02:13:42;;;;;;;4.72;4.32;;;;;;;;;;1252143;23;20323;-74
2024/02/29 02:14:12;;;;;;;7.03;5.82;;;;;;;;;;1246698;23;20011;-75
2024/02/29 02:14:43;;;;;;;2.55;2.35;;;;;;;;;;1239258;23;20011;-74
2024/02/29 02:15:13;;;;;;;7.15;5.88;;;;;;;;;;1246838;23;20078;-74
2024/02/29 02:15:44;;;;;;;4.22;3.92;;;;;;;;;;1252024;23;20517;-75
2024/02/29 02:16:15;;;;;;;8.70;8.02;;;;;;;;;;1257549;23;20462;-75
2024/02/29 02:16:45;;;;;;;7.50;6.80;;;;;;;;;;1263679;23;20005;-74
2024/02/29 02:17:16;;;;;;;4.15;3.38;;;;;;;;;;1263325;23;20426;-74
2024/02/29 02:17:49;;;;;;;8.15;6.13;;;;;;;;;;1263470;23;20093;-74
2024/02/29 02:18:20;;;;;;;5.40;4.90;;;;;;;;;;1263224;23;20006;-74
2024/02/29 02:18:50;;;;;;;4.30;3.50;;;;;;;;;;1255850;23;20003;-74
2024/02/29 02:19:21;;;;;;;5.13;4.63;;;;;;;;;;1257586;23;20060;-74
2024/02/29 02:19:52;;;;;;;3.75;3.45;;;;;;;;;;1256563;23;20093;-74
2024/02/29 02:20:24;;;;;;;6.03;5.50;;;;;;;;;;1255987;23;20026;-74
2024/02/29 02:20:55;;;;;;;6.07;5.57;;;;;;;;;;1256716;23;20367;-74
2024/02/29 02:21:25;;;;;;;5.30;4.93;;;;;;;;;;1257917;23;20006;-74
2024/02/29 02:21:57;;;;;;;6.30;5.07;;;;;;;;;;1257688;23;20002;-74
2024/02/29 02:22:28;;;;;;;2.60;2.40;;;;;;;;;;1256713;23;20029;-74
2024/02/29 02:22:59;;;;;;;5.90;5.50;;;;;;;;;;1257147;23;20014;-74
2024/02/29 02:23:29;;;;;;;2.38;2.25;;;;;;;;;;1262655;23;20016;-74
2024/02/29 02:24:01;;;;;;;4.38;3.97;;;;;;;;;;1263028;23;20067;-74
2024/02/29 02:24:32;;;;;;;2.95;2.72;;;;;;;;;;1263379;23;20010;-75
2024/02/29 02:25:03;;;;;;;9.70;8.77;;;;;;;;;;1263254;23;20042;-75
2024/02/29 02:25:33;;;;;;;2.65;2.45;;;;;;;;;;1251809;23;20015;-74
2024/02/29 02:26:05;;;;;;;5.70;5.15;;;;;;;;;;1251381;23;20015;-74
2024/02/29 02:26:36;;;;;;;4.22;3.15;;;;;;;;;;1249931;23;20423;-74
2024/02/29 02:27:07;;;;;;;9.15;5.50;;;;;;;;;;1244161;23;20493;-74
2024/02/29 02:27:38;;;;;;;4.78;4.38;;;;;;;;;;1248759;23;20022;-74
2024/02/29 02:28:09;;;;;;;3.83;3.60;;;;;;;;;;1251227;23;20043;-74
2024/02/29 02:28:40;;;;;;;12.32;6.40;;;;;;;;;;1257285;23;20075;-74
2024/02/29 02:29:10;;;;;;;3.55;2.30;;;;;;;;;;1262857;23;20002;-74
2024/02/29 02:29:41;;;;;;;4.07;3.67;;;;;;;;;;1262455;23;20009;-74
2024/02/29 02:30:11;;;;;;;5.28;3.33;;;;;;;;;;1257375;23;20374;-75
2024/02/29 02:30:44;;;;;;;7.50;4.47;;;;;;;;;;1256867;23;20520;-74
2024/02/29 02:31:15;;;;;;;2.28;2.10;;;;;;;;;;1263483;23;20055;-74
2024/02/29 02:31:46;;;;;;;5.68;3.70;;;;;;;;;;1263124;23;20002;-74
2024/02/29 02:32:16;;;;;;;11.32;6.13;;;;;;;;;;1257767;23;20002;-74
2024/02/29 02:32:47;;;;;;;20.02;6.20;;;;;;;;;;1254925;23;20487;-75
2024/02/29 02:33:18;;;;;;;5.57;4.95;;;;;;;;;;1250764;23;20090;-74
2024/02/29 02:33:49;;;;;;;3.67;3.35;;;;;;;;;;1256765;23;20007;-74
2024/02/29 02:34:20;;;;;;;12.13;6.57;;;;;;;;;;1257368;23;20406;-74
2024/02/29 02:34:51;;;;;;;5.75;5.13;;;;;;;;;;1255939;23;20571;-75
2024/02/29 02:35:21;;;;;;;10.20;8.27;;;;;;;;;;1257062;23;20490;-74
2024/02/29 02:35:52;;;;;;;5.07;4.68;;;;;;;;;;1256890;23;20040;-74
2024/02/29 02:36:23;;;;;;;5.45;5.10;;;;;;;;;;1250523;23;20066;-74
2024/02/29 02:36:53;;;;;;;3.40;3.20;;;;;;;;;;1255919;23;20042;-74
2024/02/29 02:37:24;;;;;;;13.27;10.93;;;;;;;;;;1256036;23;20006;-74
2024/02/29 02:37:54;;;;;;;13.63;7.90;;;;;;;;;;1255163;23;20014;-74
2024/02/29 02:38:25;;;;;;;2.85;2.40;;;;;;;;;;1256655;23;20006;-75
2024/02/29 02:38:55;;;;;;;13.85;7.40;;;;;;;;;;1257128;23;20085;-75
2024/02/29 02:39:26;;;;;;;4.75;4.28;;;;;;;;;;1257429;23;20040;-75
2024/02/29 02:39:56;;;;;;;7.22;6.72;;;;;;;;;;1262164;23;20564;-74
2024/02/29 02:40:28;;;;;;;14.85;5.18;;;;;;;;;;1256817;23;20466;-74
2024/02/29 02:40:59;;;;;;;11.93;6.68;;;;;;;;;;1251324;23;20353;-75
2024/02/29 02:41:29;;;;;;;14.35;5.45;;;;;;;;;;1250304;23;20074;-75
2024/02/29 02:42:00;;;;;;;12.63;8.27;;;;;;;;;;1245379;23;20011;-75
2024/02/29 02:42:31;;;;;;;12.35;6.32;;;;;;;;;;1250719;23;20017;-75
2024/02/29 02:43:02;;;;;;;8.95;3.13;;;;;;;;;;1257215;23;20359;-75
2024/02/29 02:43:32;;;;;;;4.80;3.97;;;;;;;;;;1257466;23;20006;-74
2024/02/29 02:44:03;;;;;;;8.60;7.90;;;;;;;;;;1257895;23;20010;-75
2024/02/29 02:44:33;;;;;;;4.65;4.35;;;;;;;;;;1261076;23;20061;-74
2024/02/29 02:45:04;;;;;;;8.20;5.95;;;;;;;;;;1263223;23;20014;-74
2024/02/29 02:45:35;;;;;;;10.43;9.38;;;;;;;;;;1262334;23;20021;-75
2024/02/29 02:46:05;;;;;;;9.75;7.43;;;;;;;;;;1262560;23;20010;-74
2024/02/29 02:46:36;;;;;;;4.93;4.60;;;;;;;;;;1256765;23;20100;-75
2024/02/29 02:47:06;;;;;;;5.32;3.95;;;;;;;;;;1256869;23;20029;-75
2024/02/29 02:47:38;;;;;;;2.78;2.63;;;;;;;;;;1255184;23;20052;-75
2024/02/29 02:48:08;;;;;;;8.40;6.47;;;;;;;;;;1256398;23;20049;-74
2024/02/29 02:48:39;;;;;;;5.15;4.70;;;;;;;;;;1262584;23;20010;-74
2024/02/29 02:49:09;;;;;;;7.75;4.93;;;;;;;;;;1262738;23;20010;-74
2024/02/29 02:49:41;;;;;;;6.20;5.80;;;;;;;;;;1262215;23;20009;-76
2024/02/29 02:50:12;;;;;;;4.88;4.57;;;;;;;;;;1261890;23;20503;-74
2024/02/29 02:50:43;;;;;;;7.47;6.45;;;;;;;;;;1256397;23;20114;-74
2024/02/29 02:51:13;;;;;;;7.20;5.60;;;;;;;;;;1256913;23;20035;-74
2024/02/29 02:51:44;;;;;;;3.92;3.63;;;;;;;;;;1256882;23;20010;-74
2024/02/29 02:52:14;;;;;;;5.88;4.70;;;;;;;;;;1256872;23;20006;-75
2024/02/29 02:52:45;;;;;;;3.03;2.83;;;;;;;;;;1255844;23;20504;-74
2024/02/29 02:53:15;;;;;;;7.60;5.93;;;;;;;;;;1263235;23;20429;-74
2024/02/29 02:53:46;;;;;;;9.05;6.10;;;;;;;;;;1261965;23;20005;-75
2024/02/29 02:54:17;;;;;;;11.27;4.57;;;;;;;;;;1263149;23;20111;-75
2024/02/29 02:54:47;;;;;;;6.93;3.53;;;;;;;;;;1259889;23;20285;-74
2024/02/29 02:55:18;;;;;;;3.58;3.33;;;;;;;;;;1256190;23;20006;-74
2024/02/29 02:55:49;;;;;;;5.55;3.10;;;;;;;;;;1256272;23;20006;-74
2024/02/29 02:56:19;;;;;;;9.93;6.85;;;;;;;;;;1253720;23;20401;-76
2024/02/29 02:56:50;;;;;;;4.80;3.63;;;;;;;;;;1256306;23;20452;-74
2024/02/29 02:57:21;;;;;;;8.63;7.95;;;;;;;;;;1256424;23;20045;-76
2024/02/29 02:57:51;;;;;;;11.77;6.70;;;;;;;;;;1260869;23;20006;-75
2024/02/29 02:58:22;;;;;;;3.88;3.03;;;;;;;;;;1220888;23;20042;-76
2024/02/29 02:58:54;;;;;;;11.15;6.68;;;;;;;;;;1227398;23;20006;-76
2024/02/29 02:59:24;;;;;;;9.70;4.25;;;;;;;;;;1244536;23;20069;-75
2024/02/29 02:59:55;;;;;;;4.47;3.72;;;;;;;;;;1240131;23;20541;-75
2024/02/29 03:00:26;;;;;;;4.18;3.55;;;;;;;;;;1248863;23;20007;-74
2024/02/29 03:00:58;;;;;;;17.02;7.70;;;;;;;;;;1255994;23;20010;-75
2024/02/29 03:01:29;;;;;;;15.88;8.77;;;;;;;;;;1255610;23;20099;-74
2024/02/29 03:02:00;;;;;;;5.55;4.75;;;;;;;;;;1256232;23;20007;-74
2024/02/29 03:02:31;;;;;;;52.05;7.53;;;;;;;;;;1256322;23;20002;-76
2024/02/29 03:03:01;;;;;;;11.25;6.93;;;;;;;;;;1255784;23;20409;-76
2024/02/29 03:03:32;;;;;;;6.63;4.70;;;;;;;;;;1256627;23;20006;-75
2024/02/29 03:04:04;;;;;;;11.02;7.38;;;;;;;;;;1249678;23;20040;-75